Time;durP1;ratioP1;P1;durP2;ratioP2;P2;SDS_P1;SDS_P2;PMS_P1;PMS_P2;Temp;Humidity;BMP_temperature;BMP_pressure;BME280_temperature;BME280_humidity;BME280_pressure;Samples;Min_cycle;Max_cycle;Signal;HPM_P1;HPM_P2
2022/01/23 00:05:14;;;;;;;20.1;28.5;;;;;;;-2.1;74.9;99750;;;;
2022/01/23 00:17:20;;;;;;;20.1;28.5;;;;;;;-2.1;75;99760;;;;
2022/01/23 00:38:14;;;;;;;19.9;26.1;;;;;;;-2.1;74.6;99770;;;;
2022/01/23 00:48:16;;;;;;;19.9;26.1;;;;;;;-2.2;74.6;99770;;;;
2022/01/23 00:59:14;;;;;;;22.6;27.9;;;;;;;-2.2;74.5;99770;;;;
2022/01/23 01:09:14;;;;;;;22.6;27.9;;;;;;;-2.2;74.5;99760;;;;
2022/01/23 01:30:24;;;;;;;18.6;22.9;;;;;;;-2.3;74.4;99760;;;;
2022/01/23 01:41:14;;;;;;;18.6;22.9;;;;;;;-2.5;74.6;99750;;;;
2022/01/23 01:51:17;;;;;;;18.5;25.2;;;;;;;-2.4;74.6;99750;;;;
2022/01/23 02:02:45;;;;;;;18.5;25.2;;;;;;;-2.5;74.6;99760;;;;
2022/01/23 02:11:19;;;;;;;18.5;25.2;;;;;;;-2.6;74.6;99760;;;;
2022/01/23 02:22:47;;;;;;;17.7;25.6;;;;;;;-2.6;74.6;99750;;;;
2022/01/23 02:52:32;;;;;;;17.9;23.5;;;;;;;-2.8;74.2;99790;;;;
2022/01/23 03:03:21;;;;;;;17.9;23.5;;;;;;;-2.7;74.2;99780;;;;
2022/01/23 03:13:39;;;;;;;17.9;23.5;;;;;;;-2.9;74.3;99800;;;;
2022/01/23 03:24:30;;;;;;;22.7;30;;;;;;;-3;74.3;99800;;;;
2022/01/23 03:33:14;;;;;;;22.7;30;;;;;;;-3.1;74.7;99800;;;;
2022/01/23 03:44:15;;;;;;;22.7;30;;;;;;;-3.1;74.5;99800;;;;
2022/01/23 03:55:14;;;;;;;23.2;29.8;;;;;;;-3.1;74.6;99800;;;;
2022/01/23 04:05:14;;;;;;;23.2;29.8;;;;;;;-3.1;74.4;99790;;;;
2022/01/23 04:15:22;;;;;;;23.2;29.8;;;;;;;-3.1;74.1;99800;;;;
2022/01/23 04:48:16;;;;;;;26;34.4;;;;;;;-3.3;75;99820;;;;
2022/01/23 05:09:14;;;;;;;27.1;35.4;;;;;;;-3.3;75.2;99850;;;;
2022/01/23 05:19:14;;;;;;;30.7;34.8;;;;;;;-3.2;75.2;99860;;;;
2022/01/23 05:30:14;;;;;;;30.7;34.8;;;;;;;-3.3;75.2;99850;;;;
2022/01/23 05:40:16;;;;;;;30.7;34.8;;;;;;;-3.2;75.2;99860;;;;
2022/01/23 05:51:14;;;;;;;31.6;41.6;;;;;;;-3.3;75.1;99860;;;;
2022/01/23 06:02:14;;;;;;;31.6;41.6;;;;;;;-3.5;75.5;99880;;;;
2022/01/23 06:12:14;;;;;;;31.6;41.6;;;;;;;-3.5;75.8;99860;;;;
2022/01/23 06:23:14;;;;;;;34.8;43.5;;;;;;;-3.2;75.5;99870;;;;
2022/01/23 06:34:14;;;;;;;34.8;43.5;;;;;;;-3.1;75.4;99880;;;;
2022/01/23 06:44:14;;;;;;;34.8;43.5;;;;;;;-3;75.1;99900;;;;
2022/01/23 06:55:17;;;;;;;33.4;39.5;;;;;;;-2.9;75.1;99920;;;;
2022/01/23 07:05:14;;;;;;;33.4;39.5;;;;;;;-2.7;74.7;99930;;;;
2022/01/23 07:15:14;;;;;;;33.4;39.5;;;;;;;-2.5;74;99940;;;;
2022/01/23 07:26:14;;;;;;;35.2;47.7;;;;;;;-2.3;73.7;99950;;;;
2022/01/23 07:36:14;;;;;;;35.2;47.7;;;;;;;-2.3;73.8;99970;;;;
2022/01/23 07:46:14;;;;;;;35.2;47.7;;;;;;;-2.3;73.7;99980;;;;
2022/01/23 07:56:14;;;;;;;33.9;42.7;;;;;;;-2.2;73.7;99990;;;;
2022/01/23 08:07:22;;;;;;;33.9;42.7;;;;;;;-2.1;73.3;100010;;;;
2022/01/23 08:18:15;;;;;;;34.1;38.7;;;;;;;-1.9;73.2;100030;;;;
2022/01/23 08:28:15;;;;;;;34.1;38.7;;;;;;;-1.7;72.8;100030;;;;
2022/01/23 08:38:15;;;;;;;34.1;38.7;;;;;;;-1.6;72.5;100050;;;;
2022/01/23 08:48:14;;;;;;;34.8;40.2;;;;;;;-1.7;72.4;100050;;;;
2022/01/23 08:59:14;;;;;;;34.8;40.2;;;;;;;-1.3;71.6;100050;;;;
2022/01/23 09:10:15;;;;;;;34.8;40.2;;;;;;;-1.1;71.2;100070;;;;
2022/01/23 09:20:15;;;;;;;40.4;49.2;;;;;;;-0.9;70.8;100070;;;;
2022/01/23 09:31:25;;;;;;;40.4;49.2;;;;;;;-0.7;70.5;100070;;;;
2022/01/23 09:41:14;;;;;;;40.4;49.2;;;;;;;-0.4;69.9;100070;;;;
2022/01/23 09:51:14;;;;;;;40.8;53.8;;;;;;;-0.2;70.1;100070;;;;
2022/01/23 10:02:14;;;;;;;40.8;53.8;;;;;;;0;69.2;100070;;;;
2022/01/23 10:13:14;;;;;;;40.8;53.8;;;;;;;0.2;68.5;100070;;;;
2022/01/23 10:23:14;;;;;;;43;50.8;;;;;;;1.1;67.1;100080;;;;
2022/01/23 10:33:14;;;;;;;43;50.8;;;;;;;1.2;66.4;100080;;;;
2022/01/23 10:54:15;;;;;;;38.5;43.3;;;;;;;0.8;66.5;100070;;;;
2022/01/23 11:05:15;;;;;;;38.5;43.3;;;;;;;1.3;66.1;100070;;;;
2022/01/23 11:26:14;;;;;;;37.6;43.7;;;;;;;1;66.9;100060;;;;
2022/01/23 11:36:17;;;;;;;37.6;43.7;;;;;;;1;67.1;100060;;;;
2022/01/23 11:57:14;;;;;;;37.9;46.1;;;;;;;1.4;65.6;100070;;;;
2022/01/23 12:08:15;;;;;;;37.9;46.1;;;;;;;2.2;64.3;100070;;;;
2022/01/23 12:18:14;;;;;;;32.9;38.5;;;;;;;1.5;65.2;100070;;;;
2022/01/23 12:28:14;;;;;;;32.9;38.5;;;;;;;1.3;66.1;100080;;;;
2022/01/23 12:39:16;;;;;;;32.9;38.5;;;;;;;1.5;65.7;100080;;;;
2022/01/23 12:50:14;;;;;;;33.3;37.9;;;;;;;1.1;65.9;100080;;;;
2022/01/23 13:01:15;;;;;;;33.3;37.9;;;;;;;1;66.9;100080;;;;
2022/01/23 13:11:51;;;;;;;33.3;37.9;;;;;;;0.8;67.8;100090;;;;
2022/01/23 13:31:16;;;;;;;36.2;43.3;;;;;;;0.6;68.6;100100;;;;
2022/01/23 13:52:54;;;;;;;39.6;44.9;;;;;;;0.7;68.8;100090;;;;
2022/01/23 14:02:16;;;;;;;39.6;44.9;;;;;;;0.6;69.1;100100;;;;
2022/01/23 14:12:14;;;;;;;39.6;44.9;;;;;;;0.6;69.2;100100;;;;
2022/01/23 14:22:14;;;;;;;38.2;45.2;;;;;;;0.4;70.4;100100;;;;
2022/01/23 14:32:19;;;;;;;38.2;45.2;;;;;;;0.4;70.7;100110;;;;
2022/01/23 14:43:14;;;;;;;38.2;45.2;;;;;;;0.3;71.1;100120;;;;
2022/01/23 14:53:14;;;;;;;38.7;46.5;;;;;;;0.4;72;100130;;;;
2022/01/23 15:04:15;;;;;;;38.7;46.5;;;;;;;0.2;72;100150;;;;
2022/01/23 15:15:14;;;;;;;38.7;46.5;;;;;;;0;72.6;100160;;;;
2022/01/23 15:25:15;;;;;;;41.2;50.2;;;;;;;0;72.5;100170;;;;
2022/01/23 15:35:14;;;;;;;41.2;50.2;;;;;;;-0.1;72.9;100180;;;;
2022/01/23 15:45:15;;;;;;;45.4;52.8;;;;;;;-0.1;73.3;100200;;;;
2022/01/23 15:56:14;;;;;;;45.4;52.8;;;;;;;-0.1;73.7;100220;;;;
2022/01/23 16:06:15;;;;;;;45.4;52.8;;;;;;;-0.2;73.9;100220;;;;
2022/01/23 16:17:14;;;;;;;52.6;65.2;;;;;;;-0.2;73.7;100220;;;;
2022/01/23 16:28:14;;;;;;;52.6;65.2;;;;;;;-0.5;74.6;100230;;;;
2022/01/23 16:38:15;;;;;;;52.6;65.2;;;;;;;-0.5;74.7;100240;;;;
2022/01/23 16:49:15;;;;;;;56.1;62.8;;;;;;;-0.5;74.9;100240;;;;
2022/01/23 17:00:15;;;;;;;56.1;62.8;;;;;;;-0.5;75.2;100240;;;;
2022/01/23 17:11:14;;;;;;;56.1;62.8;;;;;;;-0.6;75.2;100240;;;;
2022/01/23 17:21:15;;;;;;;57.6;70.3;;;;;;;-0.7;75.5;100250;;;;
2022/01/23 17:31:15;;;;;;;57.6;70.3;;;;;;;-0.7;75.7;100250;;;;
2022/01/23 17:42:14;;;;;;;57.6;70.3;;;;;;;-0.5;75.2;100250;;;;
2022/01/23 17:52:15;;;;;;;59.8;72.8;;;;;;;-0.6;75.2;100260;;;;
2022/01/23 18:02:15;;;;;;;59.8;72.8;;;;;;;-0.6;75.5;100260;;;;
2022/01/23 18:13:21;;;;;;;59.8;72.8;;;;;;;-0.5;75.6;100270;;;;
2022/01/23 18:23:15;;;;;;;65.6;73.6;;;;;;;-0.3;75.2;100280;;;;
2022/01/23 18:34:15;;;;;;;65.6;73.6;;;;;;;-0.7;75.8;100280;;;;
2022/01/23 18:44:15;;;;;;;65.6;73.6;;;;;;;-0.9;76.1;100270;;;;
2022/01/23 18:54:22;;;;;;;72.9;81.7;;;;;;;-0.7;75.9;100290;;;;
2022/01/23 19:05:20;;;;;;;72.9;81.7;;;;;;;-0.7;75.7;100320;;;;
2022/01/23 19:16:15;;;;;;;67.9;80;;;;;;;-0.5;75.5;100320;;;;
2022/01/23 19:26:15;;;;;;;67.9;80;;;;;;;-0.4;75.1;100320;;;;
2022/01/23 19:37:15;;;;;;;67.9;80;;;;;;;-0.5;75.1;100320;;;;
2022/01/23 19:48:20;;;;;;;69.6;79.1;;;;;;;-0.8;72.9;100330;;;;
2022/01/23 19:59:15;;;;;;;69.6;79.1;;;;;;;-0.8;71;100330;;;;
2022/01/23 20:10:28;;;;;;;69.6;79.1;;;;;;;-0.8;71;100330;;;;
2022/01/23 20:21:15;;;;;;;27.9;35.9;;;;;;;-1;69.7;100340;;;;
2022/01/23 20:31:15;;;;;;;27.9;35.9;;;;;;;-0.9;69.2;100350;;;;
2022/01/23 20:42:15;;;;;;;27.9;35.9;;;;;;;-1;68.1;100350;;;;
2022/01/23 20:53:48;;;;;;;20.3;24.5;;;;;;;-0.9;67.9;100370;;;;
2022/01/23 21:03:15;;;;;;;20.3;24.5;;;;;;;-0.9;67.8;100380;;;;
2022/01/23 21:13:17;;;;;;;20.3;24.5;;;;;;;-1.2;66.1;100390;;;;
2022/01/23 21:44:15;;;;;;;16.8;21.2;;;;;;;-1;65.8;100400;;;;
2022/01/23 21:54:15;;;;;;;16.8;21.2;;;;;;;-1.2;66.1;100410;;;;
2022/01/23 22:05:15;;;;;;;16.8;21.2;;;;;;;-1.1;65.7;100420;;;;
2022/01/23 22:16:19;;;;;;;22.4;26.6;;;;;;;-1.1;66.9;100420;;;;
2022/01/23 22:26:47;;;;;;;22.4;26.6;;;;;;;-0.9;67;100430;;;;
2022/01/23 22:37:16;;;;;;;22.4;26.6;;;;;;;-1.2;67;100430;;;;
2022/01/23 22:48:15;;;;;;;27.4;35;;;;;;;-1.1;66.3;100430;;;;
2022/01/23 22:58:15;;;;;;;27.4;35;;;;;;;-1.2;67.2;100430;;;;
2022/01/23 23:09:15;;;;;;;27.4;35;;;;;;;-1.2;67.4;100430;;;;
2022/01/23 23:19:15;;;;;;;26;34.4;;;;;;;-1;66.4;100440;;;;
2022/01/23 23:29:15;;;;;;;26;34.4;;;;;;;-1.4;67;100460;;;;
2022/01/23 23:40:19;;;;;;;26;34.4;;;;;;;-1.4;67.2;100450;;;;
2022/01/23 23:50:15;;;;;;;23.6;34.5;;;;;;;-1.3;67.2;100440;;;;
